Time;durP1;ratioP1;P1;durP2;ratioP2;P2;SDS_P1;SDS_P2;PMS_P1;PMS_P2;Temp;Humidity;BMP_temperature;BMP_pressure;BME280_temperature;BME280_humidity;BME280_pressure;Samples;Min_cycle;Max_cycle;Signal;HPM_P1;HPM_P2
2022/02/27 00:00:50;;;;;;;18.67;5.53;;;1.90;99.90;;;;;;5055428;28;20029;-87
2022/02/27 00:03:16;;;;;;;20.40;6.53;;;1.90;99.90;;;;;;5055459;28;20120;-88
2022/02/27 00:05:42;;;;;;;22.53;7.53;;;1.90;99.90;;;;;;5049236;28;20036;-87
2022/02/27 00:08:07;;;;;;;18.17;6.80;;;1.80;99.90;;;;;;5055115;28;20060;-86
2022/02/27 00:10:33;;;;;;;24.60;7.03;;;1.80;99.90;;;;;;5055099;28;20025;-85
2022/02/27 00:12:59;;;;;;;21.27;6.83;;;1.80;99.90;;;;;;5047022;28;20023;-87
2022/02/27 00:15:24;;;;;;;25.97;7.00;;;1.80;99.90;;;;;;5051269;28;20400;-88
2022/02/27 00:17:50;;;;;;;18.90;5.53;;;1.80;99.90;;;;;;5054867;28;20027;-87
2022/02/27 00:20:16;;;;;;;22.27;7.13;;;1.70;99.90;;;;;;5053749;28;20025;-86
2022/02/27 00:22:42;;;;;;;19.33;5.77;;;1.80;99.90;;;;;;5051681;28;20063;-86
2022/02/27 00:25:09;;;;;;;28.87;6.67;;;1.80;99.90;;;;;;5055196;28;20021;-87
2022/02/27 00:27:36;;;;;;;20.92;6.43;;;1.70;99.90;;;;;;5054767;28;20029;-86
2022/02/27 00:30:03;;;;;;;24.23;6.35;;;1.70;99.90;;;;;;5055065;28;20327;-87
2022/02/27 00:32:29;;;;;;;18.98;7.53;;;1.70;99.90;;;;;;5049347;28;20323;-86
2022/02/27 00:34:55;;;;;;;31.90;7.18;;;1.70;99.90;;;;;;5056294;28;20020;-88
2022/02/27 00:37:21;;;;;;;26.63;7.67;;;1.70;99.90;;;;;;5054247;28;20028;-86
2022/02/27 00:39:46;;;;;;;15.93;4.77;;;1.70;99.90;;;;;;5046505;28;20265;-87
2022/02/27 00:42:12;;;;;;;16.30;5.27;;;1.70;99.90;;;;;;5054298;28;20407;-86
2022/02/27 00:44:38;;;;;;;26.63;7.47;;;1.70;99.90;;;;;;5055254;28;20039;-88
2022/02/27 00:47:04;;;;;;;20.83;6.77;;;1.70;99.90;;;;;;5046286;28;20084;-86
2022/02/27 00:49:30;;;;;;;19.33;5.93;;;1.70;99.90;;;;;;5041797;28;20025;-85
2022/02/27 00:51:56;;;;;;;33.00;6.47;;;1.70;99.90;;;;;;5048627;28;20374;-85
2022/02/27 00:54:21;;;;;;;13.70;5.80;;;1.80;99.90;;;;;;5044288;28;20056;-86
2022/02/27 00:56:47;;;;;;;25.47;7.03;;;1.60;99.90;;;;;;5046972;28;20108;-87
2022/02/27 00:59:13;;;;;;;18.43;4.87;;;1.70;99.90;;;;;;5050095;28;20385;-86
2022/02/27 01:01:38;;;;;;;13.50;5.20;;;1.70;99.90;;;;;;5050944;28;20427;-86
2022/02/27 01:04:04;;;;;;;22.10;5.63;;;1.70;99.90;;;;;;5043972;28;20441;-87
2022/02/27 01:06:30;;;;;;;37.40;7.17;;;1.70;99.90;;;;;;5051031;28;20054;-85
2022/02/27 01:08:58;;;;;;;20.93;5.10;;;1.70;99.90;;;;;;5047013;28;20025;-86
2022/02/27 01:11:29;;;;;;;22.08;6.75;;;1.70;99.90;;;;;;5038835;28;20098;-84
2022/02/27 01:13:56;;;;;;;32.53;7.38;;;1.70;99.90;;;;;;5050605;28;20025;-84
2022/02/27 01:16:23;;;;;;;19.95;4.57;;;1.70;99.90;;;;;;5048974;28;20018;-85
2022/02/27 01:18:49;;;;;;;29.25;8.02;;;1.60;99.90;;;;;;5049850;28;20034;-87
2022/02/27 01:21:15;;;;;;;29.27;7.70;;;1.60;99.90;;;;;;5053522;28;20366;-86
2022/02/27 01:23:42;;;;;;;30.38;7.45;;;1.60;99.90;;;;;;5051451;28;20125;-86
2022/02/27 01:26:09;;;;;;;18.52;6.68;;;1.60;99.90;;;;;;5046073;28;20033;-87
2022/02/27 01:28:35;;;;;;;33.05;7.20;;;1.70;99.90;;;;;;5050805;28;20107;-86
2022/02/27 01:31:00;;;;;;;23.80;7.30;;;1.60;99.90;;;;;;5049207;28;20033;-87
2022/02/27 01:33:26;;;;;;;14.70;6.47;;;1.50;99.90;;;;;;5045553;28;20368;-87
2022/02/27 01:35:52;;;;;;;29.10;5.90;;;1.50;99.90;;;;;;5057349;28;20029;-87
2022/02/27 01:38:18;;;;;;;19.63;7.43;;;1.50;99.90;;;;;;5055437;28;20086;-88
2022/02/27 01:40:43;;;;;;;27.17;6.43;;;1.50;99.90;;;;;;5047746;28;20059;-87
2022/02/27 01:43:11;;;;;;;22.80;5.70;;;1.40;99.90;;;;;;5046529;22;20270;-86
2022/02/27 01:45:36;;;;;;;22.42;6.50;;;1.50;99.90;;;;;;4995568;28;20034;-88
2022/02/27 01:48:02;;;;;;;30.50;7.33;;;1.50;99.90;;;;;;4998672;28;20117;-84
2022/02/27 01:50:28;;;;;;;19.65;6.45;;;1.40;99.90;;;;;;4990380;28;20029;-88
2022/02/27 01:52:54;;;;;;;21.17;5.27;;;1.30;99.90;;;;;;4995363;28;20330;-86
2022/02/27 01:55:20;;;;;;;26.83;7.93;;;1.30;99.90;;;;;;4991903;28;20061;-87
2022/02/27 01:57:45;;;;;;;11.93;4.27;;;1.20;99.90;;;;;;4998050;28;20026;-86
2022/02/27 02:00:13;;;;;;;21.43;7.50;;;1.20;99.90;;;;;;4998480;28;20038;-86
2022/02/27 02:02:39;;;;;;;31.48;7.85;;;1.20;99.90;;;;;;4998436;28;20030;-86
2022/02/27 02:05:05;;;;;;;23.60;5.50;;;1.20;99.90;;;;;;4993436;28;20444;-85
2022/02/27 02:07:31;;;;;;;15.47;4.07;;;1.20;99.90;;;;;;4996640;28;20022;-88
2022/02/27 02:09:57;;;;;;;24.80;6.57;;;1.20;99.90;;;;;;4994955;28;20119;-87
2022/02/27 02:12:23;;;;;;;14.00;5.53;;;1.10;99.90;;;;;;4996104;28;20069;-87
2022/02/27 02:14:49;;;;;;;24.10;7.07;;;1.10;99.90;;;;;;4996966;28;20018;-86
2022/02/27 02:17:14;;;;;;;22.00;4.53;;;1.10;99.90;;;;;;4976663;28;20576;-84
2022/02/27 02:19:40;;;;;;;16.00;5.50;;;1.00;99.90;;;;;;5011125;28;20026;-87
2022/02/27 02:22:06;;;;;;;16.03;5.20;;;1.00;99.90;;;;;;4997016;28;20023;-87
2022/02/27 02:24:31;;;;;;;23.90;6.73;;;1.00;99.90;;;;;;4997042;28;20298;-86
2022/02/27 02:26:58;;;;;;;15.00;5.13;;;1.00;99.90;;;;;;4994776;28;20049;-87
2022/02/27 02:29:24;;;;;;;22.60;5.18;;;0.90;99.90;;;;;;4990499;28;20030;-85
2022/02/27 02:31:54;;;;;;;29.70;7.75;;;1.00;99.90;;;;;;4994656;28;20022;-87
2022/02/27 02:34:21;;;;;;;30.75;6.70;;;1.00;99.90;;;;;;4992292;28;20034;-85
2022/02/27 02:36:48;;;;;;;21.27;6.50;;;1.00;99.90;;;;;;4994458;28;20031;-86
2022/02/27 02:39:16;;;;;;;16.40;6.53;;;0.90;99.90;;;;;;4996816;28;20042;-88
2022/02/27 02:41:42;;;;;;;22.30;7.78;;;0.90;99.90;;;;;;4995415;28;20038;-88
2022/02/27 02:44:09;;;;;;;12.55;4.85;;;0.90;99.90;;;;;;4995443;28;20061;-87
2022/02/27 02:46:36;;;;;;;22.75;6.85;;;0.90;99.90;;;;;;4990035;28;20400;-86
2022/02/27 02:49:02;;;;;;;;;;;0.90;99.90;;;;;;4986096;28;20026;-86
2022/02/27 02:51:28;;;;;;;24.17;5.78;;;1.00;99.90;;;;;;4990999;28;19918;-86
2022/02/27 02:53:54;;;;;;;25.43;6.90;;;0.90;99.90;;;;;;4997432;28;20034;-86
2022/02/27 02:56:19;;;;;;;20.93;7.17;;;0.90;99.90;;;;;;4989207;28;20022;-88
2022/02/27 02:58:45;;;;;;;14.50;5.27;;;0.90;99.90;;;;;;4997352;28;20090;-85
2022/02/27 03:01:14;;;;;;;15.97;5.00;;;0.90;99.90;;;;;;4997292;28;20520;-88
2022/02/27 03:03:41;;;;;;;16.23;6.38;;;0.90;99.90;;;;;;4997274;28;20080;-85
2022/02/27 03:06:08;;;;;;;24.00;7.10;;;0.80;99.90;;;;;;4996797;28;20022;-88
2022/02/27 03:08:35;;;;;;;22.55;6.55;;;0.80;99.90;;;;;;4989994;28;20081;-85
2022/02/27 03:11:00;;;;;;;21.55;6.43;;;0.80;99.90;;;;;;4997310;28;20064;-86
2022/02/27 03:13:26;;;;;;;14.70;5.10;;;0.80;99.90;;;;;;4988665;28;20065;-87
2022/02/27 03:15:52;;;;;;;20.10;6.43;;;0.80;99.90;;;;;;4997284;28;20027;-87
2022/02/27 03:18:18;;;;;;;12.20;4.40;;;0.80;99.90;;;;;;4987080;28;20022;-88
2022/02/27 03:20:43;;;;;;;18.73;5.17;;;0.80;99.90;;;;;;4993808;28;20035;-86
2022/02/27 03:23:09;;;;;;;15.43;5.27;;;0.80;99.90;;;;;;4991716;28;20109;-87
2022/02/27 03:25:35;;;;;;;20.10;6.53;;;0.80;99.90;;;;;;4996582;28;20054;-87
2022/02/27 03:28:01;;;;;;;21.60;5.10;;;0.70;99.90;;;;;;4996558;28;20417;-85
2022/02/27 03:30:27;;;;;;;15.90;6.40;;;0.80;99.90;;;;;;5001051;28;20324;-87
2022/02/27 03:32:53;;;;;;;23.83;5.38;;;0.70;99.90;;;;;;4988687;28;20076;-87
2022/02/27 03:35:20;;;;;;;22.07;6.30;;;0.70;99.90;;;;;;4996231;28;20026;-86
2022/02/27 03:37:50;;;;;;;18.30;6.13;;;0.70;99.90;;;;;;4995809;28;20108;-87
2022/02/27 03:40:20;;;;;;;15.05;6.00;;;0.70;99.90;;;;;;4990689;28;20055;-86
2022/02/27 03:42:46;;;;;;;14.52;5.30;;;0.70;99.90;;;;;;4996504;28;20298;-86
2022/02/27 03:45:13;;;;;;;16.42;5.93;;;0.70;99.90;;;;;;4980585;28;20041;-86
2022/02/27 03:47:41;;;;;;;;;;;0.70;99.90;;;;;;4972674;28;20039;-86
2022/02/27 03:50:07;;;;;;;12.77;4.20;;;0.80;99.90;;;;;;4974896;28;19914;-86
2022/02/27 03:52:35;;;;;;;19.98;5.85;;;0.70;99.90;;;;;;4973491;28;20030;-84
2022/02/27 03:55:02;;;;;;;18.05;5.80;;;0.70;99.90;;;;;;4979711;28;20027;-85
2022/02/27 03:57:27;;;;;;;24.58;5.72;;;0.70;99.90;;;;;;4971323;28;20024;-85
2022/02/27 03:59:54;;;;;;;14.60;5.13;;;0.70;99.90;;;;;;4971263;28;20121;-88
2022/02/27 04:02:20;;;;;;;26.45;5.53;;;0.70;99.90;;;;;;4980243;28;20080;-87
2022/02/27 04:04:46;;;;;;;15.13;5.50;;;0.80;99.90;;;;;;4979700;28;20034;-86
2022/02/27 04:07:11;;;;;;;18.43;5.37;;;0.70;99.90;;;;;;4971907;28;20030;-88
2022/02/27 04:09:37;;;;;;;13.20;5.50;;;0.70;99.90;;;;;;4964846;28;20129;-86
2022/02/27 04:12:03;;;;;;;20.03;5.77;;;0.70;99.90;;;;;;4979875;28;20022;-86
2022/02/27 04:14:28;;;;;;;17.97;5.43;;;0.70;99.90;;;;;;4979861;28;20126;-86
2022/02/27 04:16:55;;;;;;;14.90;5.53;;;0.70;99.90;;;;;;4971830;28;20026;-86
2022/02/27 04:19:20;;;;;;;17.92;4.35;;;0.60;99.90;;;;;;4978925;28;20364;-85
2022/02/27 04:21:47;;;;;;;10.83;4.27;;;0.60;99.90;;;;;;4977014;28;20091;-85
2022/02/27 04:24:13;;;;;;;12.75;4.63;;;0.60;99.90;;;;;;4978607;28;20425;-84
2022/02/27 04:26:39;;;;;;;10.48;5.30;;;0.60;99.90;;;;;;4972864;28;20318;-84
2022/02/27 04:29:05;;;;;;;18.80;5.40;;;0.60;99.90;;;;;;4969022;28;20057;-85
2022/02/27 04:31:31;;;;;;;19.77;5.83;;;0.60;99.90;;;;;;4979487;28;20149;-86
2022/02/27 04:33:56;;;;;;;10.10;4.40;;;0.60;99.90;;;;;;4979517;28;20022;-86
2022/02/27 04:36:22;;;;;;;16.33;4.87;;;0.60;99.90;;;;;;4979592;28;20023;-87
2022/02/27 04:38:48;;;;;;;24.73;4.93;;;0.60;99.90;;;;;;4972762;28;20042;-87
2022/02/27 04:41:18;;;;;;;14.83;5.77;;;0.50;99.90;;;;;;4979345;28;20421;-86
2022/02/27 04:43:48;;;;;;;20.77;4.78;;;0.60;99.90;;;;;;4983847;28;20708;-87
2022/02/27 04:46:14;;;;;;;15.15;4.60;;;0.60;99.90;;;;;;4997432;28;20658;-85
2022/02/27 04:48:40;;;;;;;18.83;4.18;;;0.60;99.90;;;;;;4999530;28;20122;-86
2022/02/27 04:51:06;;;;;;;10.93;4.57;;;0.60;99.90;;;;;;4991651;28;20058;-85
2022/02/27 04:53:32;;;;;;;20.55;4.53;;;0.60;99.90;;;;;;4994048;28;20365;-86
2022/02/27 04:55:58;;;;;;;17.00;5.05;;;0.60;99.90;;;;;;4998811;28;20050;-87
2022/02/27 04:58:24;;;;;;;9.67;4.50;;;0.60;99.90;;;;;;4999371;28;20070;-87
2022/02/27 05:00:50;;;;;;;11.80;3.80;;;0.60;99.90;;;;;;4999663;28;20026;-87
2022/02/27 05:03:15;;;;;;;15.87;7.00;;;0.60;99.90;;;;;;4998981;28;20030;-86
2022/02/27 05:05:41;;;;;;;5.97;3.07;;;0.60;99.90;;;;;;4999314;28;20026;-84
2022/02/27 05:08:07;;;;;;;18.17;5.17;;;0.50;99.90;;;;;;4996446;28;20039;-84
2022/02/27 05:10:33;;;;;;;7.47;3.27;;;0.60;99.90;;;;;;4998647;28;20038;-84
2022/02/27 05:12:59;;;;;;;19.40;4.53;;;0.60;99.90;;;;;;4997164;28;20031;-85
2022/02/27 05:15:24;;;;;;;16.05;3.22;;;0.60;99.90;;;;;;4987571;28;20059;-84
2022/02/27 05:17:51;;;;;;;10.80;4.93;;;0.60;99.90;;;;;;4998246;28;20057;-85
2022/02/27 05:20:17;;;;;;;11.07;3.70;;;0.60;99.90;;;;;;4995339;28;20022;-84
2022/02/27 05:22:47;;;;;;;15.32;4.88;;;0.60;99.90;;;;;;4990656;28;20133;-84
2022/02/27 05:25:18;;;;;;;19.10;4.28;;;0.60;99.90;;;;;;4998554;28;20444;-84
2022/02/27 05:27:45;;;;;;;12.30;3.92;;;0.60;99.90;;;;;;4992794;28;20034;-84
2022/02/27 05:30:11;;;;;;;;;;;0.60;99.90;;;;;;4999508;28;20026;-83
2022/02/27 05:32:37;;;;;;;11.48;3.03;;;0.70;99.90;;;;;;4997979;28;20216;-86
2022/02/27 05:35:03;;;;;;;12.67;4.57;;;0.70;99.90;;;;;;4996736;28;20117;-86
2022/02/27 05:37:29;;;;;;;7.90;3.17;;;0.70;99.90;;;;;;4997247;28;20031;-85
2022/02/27 05:39:54;;;;;;;21.30;4.90;;;0.60;99.90;;;;;;4990906;28;20034;-84
2022/02/27 05:42:20;;;;;;;10.77;4.27;;;0.60;99.90;;;;;;4998500;28;20340;-85
2022/02/27 05:44:47;;;;;;;14.90;3.73;;;0.60;99.90;;;;;;4991217;28;20124;-83
2022/02/27 05:47:12;;;;;;;16.15;4.63;;;0.60;99.90;;;;;;4991437;28;20037;-85
2022/02/27 05:49:38;;;;;;;11.83;4.10;;;0.70;99.90;;;;;;4983853;28;20030;-83
2022/02/27 05:52:05;;;;;;;11.60;2.87;;;0.70;99.90;;;;;;4998164;28;20108;-83
2022/02/27 05:54:30;;;;;;;14.90;4.75;;;0.70;99.90;;;;;;4987111;28;20027;-82
2022/02/27 05:56:56;;;;;;;15.40;3.37;;;0.80;99.90;;;;;;4994955;28;20078;-82
2022/02/27 05:59:22;;;;;;;10.97;3.83;;;0.70;99.90;;;;;;4994112;28;20369;-84
2022/02/27 06:01:49;;;;;;;15.97;3.80;;;0.70;99.90;;;;;;4998155;28;20038;-86
2022/02/27 06:04:15;;;;;;;;;;;0.70;99.90;;;;;;4998681;28;20029;-85
2022/02/27 06:06:41;;;;;;;13.88;3.78;;;0.70;99.90;;;;;;4997467;28;20208;-86
2022/02/27 06:09:06;;;;;;;14.10;4.77;;;0.70;99.90;;;;;;4999280;28;20034;-86
2022/02/27 06:11:32;;;;;;;17.37;4.00;;;0.70;99.90;;;;;;4998247;28;20133;-86
2022/02/27 06:13:58;;;;;;;24.63;4.87;;;0.70;99.90;;;;;;4989948;28;20031;-86
2022/02/27 06:16:23;;;;;;;14.53;4.23;;;0.70;99.90;;;;;;4997965;28;20039;-87
2022/02/27 06:18:49;;;;;;;8.20;3.33;;;0.70;99.90;;;;;;4983501;28;20057;-85
2022/02/27 06:21:15;;;;;;;5.70;2.73;;;0.80;99.90;;;;;;4992097;28;20027;-85
2022/02/27 06:23:40;;;;;;;6.37;2.90;;;0.70;99.90;;;;;;4990808;28;20117;-84
2022/02/27 06:26:06;;;;;;;13.37;4.23;;;0.70;99.90;;;;;;4989772;28;20031;-85
2022/02/27 06:28:32;;;;;;;7.67;2.67;;;0.80;99.90;;;;;;4992156;28;20041;-83
2022/02/27 06:30:57;;;;;;;19.73;4.63;;;0.80;99.90;;;;;;4997688;28;20313;-85
2022/02/27 06:33:23;;;;;;;26.63;4.60;;;0.80;99.90;;;;;;4993877;28;20026;-87
2022/02/27 06:35:49;;;;;;;5.27;2.60;;;0.80;99.90;;;;;;4985742;28;20093;-84
2022/02/27 06:38:14;;;;;;;9.90;2.87;;;0.80;99.90;;;;;;4997304;28;20026;-86
2022/02/27 06:40:40;;;;;;;9.27;3.63;;;0.80;99.90;;;;;;4997906;28;20041;-87
2022/02/27 06:43:07;;;;;;;15.17;4.30;;;0.80;99.90;;;;;;4989211;28;20073;-85
2022/02/27 06:45:34;;;;;;;17.23;4.28;;;0.80;99.90;;;;;;4981626;28;20034;-88
2022/02/27 06:47:59;;;;;;;13.10;3.90;;;0.80;99.90;;;;;;4969121;28;20062;-86
2022/02/27 06:50:25;;;;;;;15.33;4.47;;;0.90;99.90;;;;;;4979525;28;20061;-84
2022/02/27 06:52:51;;;;;;;13.25;3.60;;;0.90;99.90;;;;;;4998401;28;20101;-85
2022/02/27 06:55:19;;;;;;;11.13;3.00;;;0.90;99.90;;;;;;4973163;28;20471;-85
2022/02/27 06:57:46;;;;;;;13.82;3.40;;;1.00;99.90;;;;;;4981009;28;20027;-86
2022/02/27 07:00:13;;;;;;;7.00;3.28;;;1.00;99.90;;;;;;4980372;28;20058;-84
2022/02/27 07:02:39;;;;;;;19.80;4.57;;;1.10;99.90;;;;;;4996304;28;20026;-82
2022/02/27 07:05:06;;;;;;;13.53;3.77;;;1.20;99.90;;;;;;4995729;28;20026;-86
2022/02/27 07:07:32;;;;;;;;;;;1.20;99.90;;;;;;4980623;28;20061;-86
2022/02/27 07:10:00;;;;;;;4.70;2.00;;;1.30;99.90;;;;;;4996831;28;20244;-87
2022/02/27 07:12:30;;;;;;;16.38;4.13;;;1.40;99.90;;;;;;4985722;28;20018;-86
2022/02/27 07:14:57;;;;;;;14.07;2.95;;;1.50;99.90;;;;;;4981130;28;20122;-84
2022/02/27 07:17:23;;;;;;;;;;;1.70;99.90;;;;;;4998307;28;20011;-83
2022/02/27 07:19:49;;;;;;;12.35;3.55;;;1.80;99.90;;;;;;4980489;28;19916;-88
2022/02/27 07:22:14;;;;;;;9.23;3.33;;;1.80;99.90;;;;;;4964848;28;20328;-84
2022/02/27 07:24:40;;;;;;;8.37;2.87;;;1.90;99.90;;;;;;4982702;28;20022;-85
2022/02/27 07:27:06;;;;;;;11.27;4.13;;;2.00;99.90;;;;;;4976948;28;20057;-87
2022/02/27 07:29:33;;;;;;;11.17;3.13;;;2.20;99.90;;;;;;4975684;28;20032;-86
2022/02/27 07:31:59;;;;;;;12.23;4.32;;;2.70;99.90;;;;;;5031090;23;20049;-87
2022/02/27 07:34:25;;;;;;;8.10;3.38;;;3.50;99.90;;;;;;5031032;28;20116;-85
2022/02/27 07:36:51;;;;;;;16.17;4.00;;;4.00;99.90;;;;;;5020828;28;20108;-86
2022/02/27 07:39:21;;;;;;;16.33;4.85;;;4.40;99.90;;;;;;5010593;28;20139;-84
2022/02/27 07:41:47;;;;;;;10.05;3.55;;;4.80;99.90;;;;;;5013115;28;20028;-85
2022/02/27 07:44:13;;;;;;;14.50;3.90;;;5.10;99.90;;;;;;5002181;28;20084;-85
2022/02/27 07:46:39;;;;;;;6.20;2.77;;;5.30;99.90;;;;;;5012964;28;20030;-84
2022/02/27 07:49:05;;;;;;;10.13;2.43;;;5.40;99.90;;;;;;5000357;28;20037;-85
2022/02/27 07:51:31;;;;;;;13.80;3.97;;;5.30;99.90;;;;;;5009746;28;20053;-84
2022/02/27 07:53:56;;;;;;;6.57;1.13;;;5.40;99.90;;;;;;5027413;28;20029;-85
2022/02/27 07:56:22;;;;;;;16.87;3.00;;;5.50;99.90;;;;;;5011613;28;20128;-85
2022/02/27 07:58:48;;;;;;;10.82;2.72;;;5.50;99.90;;;;;;5008033;28;20059;-85
2022/02/27 08:01:14;;;;;;;8.83;2.63;;;5.40;99.90;;;;;;5010371;28;20112;-84
2022/02/27 08:03:41;;;;;;;5.87;2.37;;;5.40;99.90;;;;;;5027670;28;20531;-85
2022/02/27 08:06:07;;;;;;;;;;;5.30;99.90;;;;;;4999759;28;20028;-86
2022/02/27 08:08:33;;;;;;;7.23;5.17;;;5.60;99.90;;;;;;5006042;28;19917;-85
2022/02/27 08:10:59;;;;;;;10.20;2.20;;;6.00;99.90;;;;;;5012008;28;20390;-85
2022/02/27 08:13:25;;;;;;;8.77;2.70;;;6.20;99.90;;;;;;5002524;28;20037;-84
2022/02/27 08:15:51;;;;;;;9.50;3.37;;;6.20;99.90;;;;;;5010010;28;20566;-85
2022/02/27 08:18:17;;;;;;;9.23;2.90;;;6.20;99.90;;;;;;5012721;28;20435;-83
2022/02/27 08:20:47;;;;;;;4.90;2.47;;;6.40;99.90;;;;;;5005233;28;20021;-83
2022/02/27 08:23:18;;;;;;;13.48;3.03;;;6.40;99.90;;;;;;5014923;28;20022;-84
2022/02/27 08:25:44;;;;;;;11.15;3.60;;;6.50;99.90;;;;;;5016311;28;20083;-86
2022/02/27 08:28:10;;;;;;;8.00;3.20;;;6.60;99.90;;;;;;5014422;28;20021;-86
2022/02/27 08:30:39;;;;;;;15.10;3.92;;;6.50;99.90;;;;;;4996953;28;20046;-87
2022/02/27 08:33:06;;;;;;;9.70;3.25;;;6.50;99.90;;;;;;5010631;28;20112;-87
2022/02/27 08:35:32;;;;;;;10.02;2.50;;;6.90;99.90;;;;;;5010725;28;20124;-85
2022/02/27 08:38:03;;;;;;;10.27;3.30;;;7.20;99.90;;;;;;5009202;28;20030;-87
2022/02/27 08:40:28;;;;;;;11.10;3.33;;;7.40;99.90;;;;;;5005765;28;20037;-87
2022/02/27 08:42:59;;;;;;;11.80;3.13;;;7.70;99.90;;;;;;5006919;28;20030;-86
2022/02/27 08:45:25;;;;;;;7.70;2.78;;;7.70;99.90;;;;;;5012460;28;20025;-87
2022/02/27 08:47:51;;;;;;;10.65;2.38;;;7.80;99.90;;;;;;5017057;28;20026;-86
2022/02/27 08:50:18;;;;;;;8.93;3.50;;;7.70;99.90;;;;;;5023107;28;20030;-85
2022/02/27 08:52:44;;;;;;;9.18;2.92;;;7.80;99.90;;;;;;5003648;28;20034;-87
2022/02/27 08:55:11;;;;;;;10.73;3.07;;;7.80;99.90;;;;;;5015265;28;20057;-84
2022/02/27 08:57:38;;;;;;;10.48;3.33;;;7.80;99.90;;;;;;5005079;28;20324;-86
2022/02/27 09:00:06;;;;;;;11.65;2.60;;;7.90;99.90;;;;;;5010932;28;20033;-86
2022/02/27 09:02:32;;;;;;;13.50;3.17;;;8.00;99.90;;;;;;5029615;28;20083;-87
2022/02/27 09:04:57;;;;;;;4.45;3.00;;;7.80;99.90;;;;;;5006943;28;20033;-87
2022/02/27 09:07:23;;;;;;;9.30;3.20;;;8.00;99.90;;;;;;5019846;28;20613;-83
2022/02/27 09:09:49;;;;;;;7.97;3.20;;;7.90;99.90;;;;;;5042622;28;20075;-86
2022/02/27 09:12:15;;;;;;;12.27;2.93;;;8.10;99.90;;;;;;5018776;28;20024;-88
2022/02/27 09:14:45;;;;;;;7.97;2.73;;;7.90;99.90;;;;;;5018321;28;20030;-85
2022/02/27 09:17:12;;;;;;;7.50;3.20;;;7.90;99.90;;;;;;5026992;28;20037;-86
2022/02/27 09:19:37;;;;;;;10.27;2.17;;;7.50;99.90;;;;;;5021380;28;20025;-86
2022/02/27 09:22:04;;;;;;;5.87;3.00;;;7.50;99.90;;;;;;5031494;28;20053;-86
2022/02/27 09:24:29;;;;;;;4.90;2.50;;;7.50;99.90;;;;;;5020681;28;20029;-87
2022/02/27 09:26:57;;;;;;;7.43;3.07;;;7.80;99.90;;;;;;5014715;28;20041;-85
2022/02/27 09:29:25;;;;;;;11.35;2.92;;;7.70;99.90;;;;;;5029688;28;20033;-88
2022/02/27 09:31:52;;;;;;;7.68;2.85;;;7.70;99.90;;;;;;5017661;28;20331;-87
2022/02/27 09:34:17;;;;;;;15.48;3.08;;;7.60;99.90;;;;;;5029044;28;20378;-86
2022/02/27 09:36:43;;;;;;;5.90;3.10;;;7.80;99.90;;;;;;5024830;28;20108;-88
2022/02/27 09:39:09;;;;;;;11.93;3.17;;;8.10;99.90;;;;;;5023998;28;20037;-89
2022/02/27 09:41:35;;;;;;;5.90;1.87;;;8.00;99.90;;;;;;5005718;28;20052;-86
2022/02/27 09:44:03;;;;;;;16.10;2.57;;;8.20;99.90;;;;;;5020517;28;20030;-87
2022/02/27 09:46:31;;;;;;;8.20;2.85;;;8.10;99.90;;;;;;5013639;28;20444;-87
2022/02/27 09:48:58;;;;;;;10.48;2.15;;;8.00;99.90;;;;;;5034841;28;20040;-86
2022/02/27 09:51:24;;;;;;;6.35;2.90;;;7.90;99.90;;;;;;5018206;28;20021;-88
2022/02/27 09:53:51;;;;;;;11.60;2.67;;;8.00;99.90;;;;;;5021636;28;20021;-88
2022/02/27 09:56:17;;;;;;;12.10;2.50;;;8.20;99.90;;;;;;5022237;28;20404;-89
2022/02/27 09:58:43;;;;;;;7.27;3.30;;;8.30;99.90;;;;;;5008868;28;20042;-87
2022/02/27 10:01:09;;;;;;;5.50;2.40;;;8.40;99.90;;;;;;5007084;28;20426;-88
2022/02/27 10:03:35;;;;;;;8.13;2.50;;;8.50;99.90;;;;;;5006714;28;20026;-88
2022/02/27 10:06:06;;;;;;;10.45;2.78;;;8.60;99.90;;;;;;5037533;28;20328;-89
2022/02/27 10:09:04;;;;;;;12.95;3.05;;;8.50;99.90;;;;;;5009078;28;20038;-88
2022/02/27 10:11:35;;;;;;;3.05;1.70;;;8.70;99.90;;;;;;5007789;28;20065;-86
2022/02/27 10:14:01;;;;;;;9.00;1.75;;;8.40;99.90;;;;;;5006898;28;20030;-89
2022/02/27 10:16:29;;;;;;;6.22;1.90;;;8.20;99.90;;;;;;5015173;28;20301;-84
2022/02/27 10:18:58;;;;;;;7.88;1.77;;;8.20;99.90;;;;;;5020227;28;20033;-85
2022/02/27 10:21:26;;;;;;;4.15;1.40;;;8.20;99.90;;;;;;5034074;28;20025;-84
2022/02/27 10:24:12;;;;;;;5.43;1.92;;;8.30;99.90;;;;;;5020624;28;20068;-83
2022/02/27 10:26:41;;;;;;;3.65;1.50;;;8.40;99.90;;;;;;5021054;28;20327;-86
2022/02/27 10:29:21;;;;;;;4.43;1.80;;;8.20;99.90;;;;;;5008742;28;20026;-83
2022/02/27 10:31:50;;;;;;;6.00;1.92;;;8.20;99.90;;;;;;5035413;28;20044;-85
2022/02/27 10:34:22;;;;;;;3.72;1.17;;;8.10;99.90;;;;;;5020745;28;20026;-87
2022/02/27 10:37:08;;;;;;;4.07;1.25;;;8.10;99.90;;;;;;5020878;28;20108;-87
2022/02/27 10:39:41;;;;;;;3.28;1.77;;;8.00;99.90;;;;;;5020791;28;20367;-87
2022/02/27 10:42:09;;;;;;;9.50;1.85;;;7.70;99.90;;;;;;5027149;28;20034;-87
2022/02/27 10:44:36;;;;;;;7.72;1.92;;;7.70;99.90;;;;;;5016532;28;20061;-87
2022/02/27 10:47:16;;;;;;;8.57;2.25;;;7.70;99.90;;;;;;5031195;28;20033;-89
2022/02/27 10:49:43;;;;;;;2.92;1.80;;;7.70;99.90;;;;;;5025788;28;20044;-91
2022/02/27 10:52:15;;;;;;;3.88;1.50;;;7.60;99.90;;;;;;5015569;28;20021;-87
2022/02/27 10:54:46;;;;;;;8.07;1.95;;;7.70;99.90;;;;;;5020047;28;20033;-88
2022/02/27 10:57:29;;;;;;;6.25;1.85;;;7.80;99.90;;;;;;5020292;28;20049;-87
2022/02/27 10:59:55;;;;;;;2.63;1.50;;;7.80;99.90;;;;;;5019785;28;20049;-88
2022/02/27 11:02:27;;;;;;;7.65;2.70;;;7.90;99.90;;;;;;5019838;28;20026;-90
2022/02/27 11:04:53;;;;;;;6.05;2.00;;;8.00;99.90;;;;;;5019197;28;20033;-88
2022/02/27 11:07:19;;;;;;;8.05;1.55;;;8.10;99.90;;;;;;5021555;28;20033;-89
2022/02/27 11:09:45;;;;;;;2.70;1.77;;;8.20;99.90;;;;;;5012750;28;20045;-90
2022/02/27 11:12:15;;;;;;;3.60;1.40;;;8.20;99.90;;;;;;5007976;28;20030;-88
2022/02/27 11:14:45;;;;;;;3.42;1.70;;;8.30;99.90;;;;;;5019937;28;20335;-86
2022/02/27 11:17:12;;;;;;;6.40;1.90;;;8.30;99.90;;;;;;5013299;28;20018;-91
2022/02/27 11:19:38;;;;;;;8.63;2.60;;;8.30;99.90;;;;;;5008371;28;20083;-86
2022/02/27 11:22:07;;;;;;;8.70;1.83;;;8.40;99.90;;;;;;5028988;28;20043;-87
2022/02/27 11:24:35;;;;;;;4.32;1.75;;;8.60;99.90;;;;;;5019153;28;20271;-85
2022/02/27 11:27:05;;;;;;;5.15;2.05;;;8.60;99.90;;;;;;5009657;28;20034;-92
2022/02/27 11:29:31;;;;;;;4.45;2.08;;;8.60;99.90;;;;;;5023656;28;20021;-91
2022/02/27 11:32:00;;;;;;;6.90;2.35;;;8.60;99.90;;;;;;5011381;28;20133;-91
2022/02/27 11:34:27;;;;;;;3.15;1.42;;;8.70;98.80;;;;;;5001590;28;20040;-89
2022/02/27 11:36:54;;;;;;;2.50;1.52;;;8.70;99.90;;;;;;5043796;28;20021;-92
2022/02/27 11:42:04;;;;;;;3.72;1.90;;;8.80;99.20;;;;;;5026815;28;20040;-92
2022/02/27 11:44:38;;;;;;;4.93;1.30;;;8.90;99.90;;;;;;5016117;28;20026;-89
2022/02/27 11:47:10;;;;;;;7.72;2.08;;;8.90;99.00;;;;;;5035759;28;20686;-86
2022/02/27 11:49:40;;;;;;;5.43;1.20;;;8.90;99.80;;;;;;5015036;28;20040;-89
2022/02/27 11:52:08;;;;;;;1.85;1.27;;;9.00;98.90;;;;;;5020708;28;20051;-92
2022/02/27 11:54:38;;;;;;;5.00;1.70;;;8.90;98.20;;;;;;5022542;28;20317;-91
2022/02/27 11:57:10;;;;;;;3.67;1.58;;;8.90;98.60;;;;;;5033051;28;20105;-88
2022/02/27 11:59:55;;;;;;;4.03;1.75;;;9.10;99.10;;;;;;5025107;28;20030;-91
2022/02/27 12:02:24;;;;;;;4.45;1.73;;;9.20;98.20;;;;;;5016305;28;20051;-90
2022/02/27 12:04:50;;;;;;;2.90;1.27;;;9.10;98.80;;;;;;5024382;28;20394;-93
2022/02/27 12:07:16;;;;;;;3.95;2.45;;;9.20;97.70;;;;;;5006541;28;20084;-86
2022/02/27 12:10:02;;;;;;;3.50;1.60;;;9.40;99.30;;;;;;5014909;28;20041;-93
2022/02/27 12:12:37;;;;;;;10.90;2.42;;;9.40;98.20;;;;;;5012498;28;20021;-90
2022/02/27 12:15:35;;;;;;;3.35;1.30;;;9.30;97.90;;;;;;5014488;28;20415;-91
2022/02/27 12:18:07;;;;;;;3.65;1.75;;;9.10;97.80;;;;;;5017366;28;20029;-92
2022/02/27 12:20:44;;;;;;;3.92;1.90;;;9.00;98.40;;;;;;5027478;28;20039;-88
2022/02/27 12:23:38;;;;;;;4.15;1.40;;;9.10;98.50;;;;;;5013541;28;20060;-85
2022/02/27 12:26:31;;;;;;;7.72;2.15;;;9.10;97.80;;;;;;5017618;28;20032;-85
2022/02/27 12:28:57;;;;;;;7.68;2.55;;;9.10;98.30;;;;;;5016263;28;20079;-91
2022/02/27 12:31:29;;;;;;;8.80;1.95;;;9.20;98.90;;;;;;5020695;28;20492;-85
2022/02/27 12:33:58;;;;;;;7.03;2.47;;;9.30;98.70;;;;;;5014688;28;20332;-83
2022/02/27 12:36:26;;;;;;;1.13;1.02;;;9.40;99.50;;;;;;4994986;28;20023;-86
2022/02/27 12:38:59;;;;;;;2.92;1.92;;;9.40;96.80;;;;;;4984126;28;20026;-91
2022/02/27 12:41:28;;;;;;;7.22;2.65;;;9.30;97.50;;;;;;4996235;28;20325;-87
2022/02/27 12:43:54;;;;;;;3.08;1.52;;;9.30;98.30;;;;;;5013055;28;20072;-88
2022/02/27 12:46:20;;;;;;;2.07;1.53;;;9.30;98.10;;;;;;4998587;28;20022;-84
2022/02/27 12:51:32;;;;;;;2.80;1.92;;;9.30;99.00;;;;;;5014244;28;20096;-86
2022/02/27 12:54:01;;;;;;;13.13;2.13;;;9.30;98.30;;;;;;4999237;28;20037;-89
2022/02/27 12:56:31;;;;;;;6.60;2.28;;;9.30;97.70;;;;;;4998989;28;20050;-91
2022/02/27 12:58:57;;;;;;;3.85;1.80;;;9.40;98.30;;;;;;4999235;28;20030;-86